Time;durP1;ratioP1;P1;durP2;ratioP2;P2;SDS_P1;SDS_P2;PMS_P1;PMS_P2;Temp;Humidity;BMP_temperature;BMP_pressure;BME280_temperature;BME280_humidity;BME280_pressure;Samples;Min_cycle;Max_cycle;Signal;HPM_P1;HPM_P2
2023/02/17 00:00:52;;;;;;;8.45;5.32;;;;;;;;;;5028925;28;20497;-76
2023/02/17 00:03:18;;;;;;;8.63;5.82;;;;;;;;;;5034248;28;20108;-76
2023/02/17 00:05:44;;;;;;;7.85;5.18;;;;;;;;;;5028147;28;20482;-76
2023/02/17 00:08:10;;;;;;;7.60;5.22;;;;;;;;;;5023758;28;20030;-76
2023/02/17 00:10:35;;;;;;;7.88;5.32;;;;;;;;;;5031162;28;20049;-76
2023/02/17 00:13:01;;;;;;;9.73;5.72;;;;;;;;;;5027922;28;20053;-77
2023/02/17 00:15:26;;;;;;;7.78;5.22;;;;;;;;;;5028719;28;20099;-76
2023/02/17 00:17:51;;;;;;;8.93;5.40;;;;;;;;;;5026818;28;20061;-76
2023/02/17 00:20:17;;;;;;;7.63;5.25;;;;;;;;;;5016985;28;20033;-76
2023/02/17 00:22:42;;;;;;;6.90;5.07;;;;;;;;;;5027342;28;20380;-75
2023/02/17 00:25:07;;;;;;;8.75;6.00;;;;;;;;;;5028633;28;20035;-76
2023/02/17 00:27:33;;;;;;;8.00;5.45;;;;;;;;;;5025831;28;20036;-76
2023/02/17 00:29:58;;;;;;;8.27;5.40;;;;;;;;;;5012034;28;20037;-76
2023/02/17 00:32:23;;;;;;;8.15;5.60;;;;;;;;;;5025917;28;20021;-76
2023/02/17 00:34:51;;;;;;;9.18;5.72;;;;;;;;;;5020255;28;20068;-76
2023/02/17 00:37:16;;;;;;;9.32;5.40;;;;;;;;;;5022875;28;20033;-76
2023/02/17 00:39:42;;;;;;;8.38;5.45;;;;;;;;;;5025851;28;20505;-76
2023/02/17 00:42:07;;;;;;;8.95;5.03;;;;;;;;;;5030760;28;20017;-76
2023/02/17 00:44:33;;;;;;;9.93;5.20;;;;;;;;;;5028787;28;20103;-76
2023/02/17 00:46:58;;;;;;;7.95;5.00;;;;;;;;;;5033096;28;20035;-76
2023/02/17 00:49:25;;;;;;;8.40;5.60;;;;;;;;;;5030808;28;20033;-76
2023/02/17 00:51:51;;;;;;;8.57;5.82;;;;;;;;;;5030552;28;20092;-76
2023/02/17 00:54:17;;;;;;;8.10;5.25;;;;;;;;;;5033958;28;20029;-76
2023/02/17 00:56:43;;;;;;;8.02;5.32;;;;;;;;;;5032544;28;20040;-76
2023/02/17 00:59:08;;;;;;;9.45;5.03;;;;;;;;;;5027164;28;20584;-76
2023/02/17 01:01:36;;;;;;;7.80;5.22;;;;;;;;;;5032771;28;20049;-76
2023/02/17 01:04:02;;;;;;;8.52;5.03;;;;;;;;;;5019919;28;20022;-76
2023/02/17 01:06:31;;;;;;;8.98;5.30;;;;;;;;;;5024814;28;20032;-76
2023/02/17 01:08:56;;;;;;;8.50;5.63;;;;;;;;;;5025434;28;20034;-76
2023/02/17 01:11:27;;;;;;;8.60;5.30;;;;;;;;;;5027802;28;20079;-76
2023/02/17 01:13:54;;;;;;;7.45;5.07;;;;;;;;;;5026565;28;20033;-76
2023/02/17 01:16:26;;;;;;;8.02;4.88;;;;;;;;;;5026057;28;20057;-76
2023/02/17 01:18:52;;;;;;;8.20;5.20;;;;;;;;;;5023212;28;20030;-77
2023/02/17 01:21:22;;;;;;;7.88;4.88;;;;;;;;;;5029645;28;20524;-76
2023/02/17 01:23:49;;;;;;;6.60;4.50;;;;;;;;;;5029988;28;20057;-77
2023/02/17 01:26:17;;;;;;;8.73;5.22;;;;;;;;;;5021177;28;20108;-76
2023/02/17 01:28:43;;;;;;;7.40;4.80;;;;;;;;;;5022594;28;20025;-76
2023/02/17 01:31:10;;;;;;;8.05;4.78;;;;;;;;;;5027957;28;20029;-76
2023/02/17 01:33:36;;;;;;;7.68;4.90;;;;;;;;;;5019810;28;20079;-76
2023/02/17 01:36:03;;;;;;;7.70;4.97;;;;;;;;;;5026124;28;20438;-76
2023/02/17 01:38:28;;;;;;;9.40;5.40;;;;;;;;;;5017143;28;20120;-76
2023/02/17 01:40:54;;;;;;;9.73;5.80;;;;;;;;;;5022869;28;20109;-76
2023/02/17 01:43:20;;;;;;;9.18;5.55;;;;;;;;;;5028993;28;20029;-76
2023/02/17 01:45:51;;;;;;;9.68;5.75;;;;;;;;;;5031949;28;20508;-76
2023/02/17 01:48:20;;;;;;;10.27;6.43;;;;;;;;;;5032285;28;20071;-76
2023/02/17 01:50:53;;;;;;;12.75;6.13;;;;;;;;;;5028834;28;20381;-76
2023/02/17 01:53:23;;;;;;;9.88;5.53;;;;;;;;;;5027715;28;20017;-76
2023/02/17 01:55:50;;;;;;;11.52;6.22;;;;;;;;;;5022573;28;20466;-76
2023/02/17 01:58:19;;;;;;;10.68;6.35;;;;;;;;;;5026792;28;20029;-76
2023/02/17 02:00:46;;;;;;;11.52;6.20;;;;;;;;;;5026165;28;20071;-76
2023/02/17 02:03:13;;;;;;;11.13;6.88;;;;;;;;;;5016011;28;20416;-76
2023/02/17 02:05:40;;;;;;;11.07;6.80;;;;;;;;;;5022016;28;20049;-76
2023/02/17 02:08:07;;;;;;;11.32;6.93;;;;;;;;;;5022862;28;20469;-76
2023/02/17 02:10:33;;;;;;;12.40;6.80;;;;;;;;;;5028042;28;20033;-76
2023/02/17 02:12:58;;;;;;;12.05;6.13;;;;;;;;;;5026955;28;20036;-76
2023/02/17 02:15:30;;;;;;;12.65;6.95;;;;;;;;;;5028789;28;20553;-76
2023/02/17 02:18:04;;;;;;;11.85;6.47;;;;;;;;;;5024499;28;20029;-76
2023/02/17 02:20:42;;;;;;;12.35;6.45;;;;;;;;;;5026514;28;20033;-76
2023/02/17 02:23:10;;;;;;;10.77;6.25;;;;;;;;;;5027177;28;20041;-76
2023/02/17 02:26:17;;;;;;;11.80;6.70;;;;;;;;;;5021636;28;20151;-76
2023/02/17 02:29:27;;;;;;;9.20;5.82;;;;;;;;;;5007705;28;20533;-76
2023/02/17 02:32:30;;;;;;;11.23;5.97;;;;;;;;;;5001567;28;20046;-76
2023/02/17 02:35:10;;;;;;;11.20;6.10;;;;;;;;;;5025989;28;20029;-76
2023/02/17 02:37:41;;;;;;;9.68;6.00;;;;;;;;;;5022594;28;20048;-76
2023/02/17 02:40:09;;;;;;;11.35;5.82;;;;;;;;;;5017076;28;20044;-76
2023/02/17 02:42:35;;;;;;;11.15;6.18;;;;;;;;;;5035856;28;20665;-76
2023/02/17 02:45:04;;;;;;;11.65;6.28;;;;;;;;;;5016807;28;20529;-76
2023/02/17 02:47:50;;;;;;;9.43;6.32;;;;;;;;;;5027491;28;20413;-76
2023/02/17 02:50:27;;;;;;;9.50;6.07;;;;;;;;;;5017462;28;20377;-76
2023/02/17 02:53:19;;;;;;;10.88;6.40;;;;;;;;;;5012255;28;20040;-76
2023/02/17 02:56:01;;;;;;;9.98;6.00;;;;;;;;;;5019926;28;20068;-76
2023/02/17 02:58:41;;;;;;;9.93;6.53;;;;;;;;;;5021725;28;20497;-76
2023/02/17 03:01:48;;;;;;;16.05;6.75;;;;;;;;;;5023087;28;20036;-76
2023/02/17 03:04:37;;;;;;;10.85;5.90;;;;;;;;;;5017418;28;20025;-76
2023/02/17 03:07:28;;;;;;;10.93;6.80;;;;;;;;;;5020338;28;20083;-76
2023/02/17 03:09:56;;;;;;;10.15;5.93;;;;;;;;;;5017213;28;20601;-75
2023/02/17 03:12:23;;;;;;;10.75;5.80;;;;;;;;;;5021413;28;20541;-76
2023/02/17 03:14:51;;;;;;;12.07;6.65;;;;;;;;;;5019433;28;20032;-76
2023/02/17 03:17:17;;;;;;;10.60;6.57;;;;;;;;;;5021498;28;20056;-76
2023/02/17 03:19:46;;;;;;;9.00;5.90;;;;;;;;;;5021923;28;20066;-76
2023/02/17 03:22:20;;;;;;;11.27;7.22;;;;;;;;;;5026648;28;20025;-76
2023/02/17 03:24:45;;;;;;;10.95;6.95;;;;;;;;;;5023595;28;20046;-76
2023/02/17 03:27:10;;;;;;;11.00;7.22;;;;;;;;;;5022157;28;20068;-76
2023/02/17 03:29:36;;;;;;;12.63;6.95;;;;;;;;;;5018184;28;20021;-76
2023/02/17 03:32:01;;;;;;;13.57;7.65;;;;;;;;;;5022182;28;20031;-76
2023/02/17 03:34:27;;;;;;;11.07;7.13;;;;;;;;;;5013420;28;20029;-76
2023/02/17 03:36:52;;;;;;;12.43;7.60;;;;;;;;;;5028524;28;20033;-76
2023/02/17 03:39:18;;;;;;;12.50;8.18;;;;;;;;;;5019713;28;20034;-77
2023/02/17 03:41:43;;;;;;;11.57;7.72;;;;;;;;;;5022422;28;20075;-76
2023/02/17 03:44:08;;;;;;;14.35;8.77;;;;;;;;;;5021371;28;20057;-77
2023/02/17 03:46:34;;;;;;;12.65;8.48;;;;;;;;;;5025965;28;20083;-76
2023/02/17 03:48:59;;;;;;;13.93;8.27;;;;;;;;;;5019723;28;20112;-76
2023/02/17 03:51:25;;;;;;;14.38;8.80;;;;;;;;;;5020610;28;20022;-76
2023/02/17 03:53:51;;;;;;;14.20;8.45;;;;;;;;;;5022887;28;20030;-76
2023/02/17 03:56:17;;;;;;;12.85;7.85;;;;;;;;;;5020198;28;20478;-76
2023/02/17 03:58:44;;;;;;;14.75;8.20;;;;;;;;;;5026822;28;20042;-76
2023/02/17 04:01:11;;;;;;;13.35;8.13;;;;;;;;;;5025641;28;20029;-76
2023/02/17 04:03:37;;;;;;;14.25;8.73;;;;;;;;;;5022685;28;20438;-76
2023/02/17 04:06:03;;;;;;;14.40;8.35;;;;;;;;;;5021467;28;20029;-76
2023/02/17 04:08:29;;;;;;;14.48;8.65;;;;;;;;;;5018569;28;20482;-76
2023/02/17 04:10:58;;;;;;;13.90;8.13;;;;;;;;;;5019393;28;20026;-76
2023/02/17 04:13:24;;;;;;;14.35;8.32;;;;;;;;;;5026882;28;20032;-76
2023/02/17 04:15:50;;;;;;;14.82;9.05;;;;;;;;;;5024089;28;20029;-76
2023/02/17 04:18:16;;;;;;;15.05;8.50;;;;;;;;;;5029850;28;20160;-76
2023/02/17 04:20:42;;;;;;;13.70;8.20;;;;;;;;;;5028063;28;20029;-75
2023/02/17 04:23:08;;;;;;;13.85;8.13;;;;;;;;;;5030325;28;20021;-76
2023/02/17 04:25:34;;;;;;;14.63;8.27;;;;;;;;;;5030532;28;20021;-76
2023/02/17 04:28:01;;;;;;;14.80;8.93;;;;;;;;;;5025197;28;20422;-76
2023/02/17 04:30:26;;;;;;;16.40;8.50;;;;;;;;;;5026058;28;20053;-76
2023/02/17 04:32:52;;;;;;;12.80;8.02;;;;;;;;;;5027325;28;20029;-77
2023/02/17 04:35:17;;;;;;;14.07;8.07;;;;;;;;;;5022632;28;20025;-76
2023/02/17 04:37:42;;;;;;;14.65;8.35;;;;;;;;;;5025150;28;20029;-76
2023/02/17 04:40:09;;;;;;;14.90;9.05;;;;;;;;;;5019374;28;20029;-76
2023/02/17 04:42:35;;;;;;;15.77;9.57;;;;;;;;;;5029689;28;20026;-76
2023/02/17 04:45:01;;;;;;;16.45;9.57;;;;;;;;;;5028698;28;20064;-76
2023/02/17 04:47:27;;;;;;;15.10;9.20;;;;;;;;;;5022998;28;20537;-76
2023/02/17 04:49:52;;;;;;;16.08;9.75;;;;;;;;;;5027363;28;20116;-76
2023/02/17 04:52:18;;;;;;;17.00;10.52;;;;;;;;;;5025516;28;20477;-76
2023/02/17 04:54:43;;;;;;;15.27;9.82;;;;;;;;;;5028964;28;20025;-76
2023/02/17 04:57:09;;;;;;;15.30;9.65;;;;;;;;;;5028994;28;20037;-75
2023/02/17 04:59:34;;;;;;;15.27;10.13;;;;;;;;;;5027319;28;20030;-76
2023/02/17 05:02:00;;;;;;;15.18;9.88;;;;;;;;;;5023856;28;20021;-76
2023/02/17 05:04:25;;;;;;;15.40;10.07;;;;;;;;;;5027529;28;20025;-76
2023/02/17 05:06:50;;;;;;;16.65;10.63;;;;;;;;;;5026797;28;20030;-76
2023/02/17 05:09:16;;;;;;;15.70;10.02;;;;;;;;;;5031283;28;20036;-76
2023/02/17 05:11:41;;;;;;;15.00;9.40;;;;;;;;;;5023472;28;20024;-76
2023/02/17 05:14:07;;;;;;;14.45;9.25;;;;;;;;;;5023125;28;20037;-76
2023/02/17 05:16:32;;;;;;;14.52;9.10;;;;;;;;;;5025711;28;20094;-76
2023/02/17 05:18:57;;;;;;;16.50;9.88;;;;;;;;;;5027750;28;20037;-76
2023/02/17 05:21:23;;;;;;;13.57;8.65;;;;;;;;;;5028358;28;20068;-76
2023/02/17 05:23:48;;;;;;;16.33;10.02;;;;;;;;;;5025592;28;20029;-76
2023/02/17 05:26:13;;;;;;;16.58;9.75;;;;;;;;;;5021248;28;20034;-76
2023/02/17 05:28:39;;;;;;;15.85;9.32;;;;;;;;;;5018573;28;20026;-76
2023/02/17 05:31:05;;;;;;;14.75;9.52;;;;;;;;;;5026869;28;20063;-76
2023/02/17 05:33:31;;;;;;;14.95;9.65;;;;;;;;;;5022906;28;20017;-76
2023/02/17 05:36:01;;;;;;;15.55;9.43;;;;;;;;;;5020722;28;20362;-76
2023/02/17 05:38:26;;;;;;;17.65;9.82;;;;;;;;;;5023309;28;20062;-76
2023/02/17 05:40:51;;;;;;;15.15;10.10;;;;;;;;;;5025093;28;20034;-75
2023/02/17 05:43:17;;;;;;;16.00;9.82;;;;;;;;;;5022935;28;20088;-76
2023/02/17 05:45:42;;;;;;;15.35;9.57;;;;;;;;;;5021014;28;22005;-76
2023/02/17 05:48:07;;;;;;;16.65;10.00;;;;;;;;;;5025994;28;20108;-76
2023/02/17 05:50:33;;;;;;;14.98;9.65;;;;;;;;;;5022526;28;20032;-76
2023/02/17 05:52:58;;;;;;;16.50;10.18;;;;;;;;;;5019642;28;20056;-77
2023/02/17 05:55:24;;;;;;;14.40;8.85;;;;;;;;;;5015717;28;20032;-76
2023/02/17 05:57:49;;;;;;;15.63;9.73;;;;;;;;;;5027187;28;20084;-76
2023/02/17 06:00:15;;;;;;;14.02;8.93;;;;;;;;;;5019851;28;20029;-77
2023/02/17 06:02:40;;;;;;;14.82;9.48;;;;;;;;;;5015226;28;20029;-76
2023/02/17 06:05:07;;;;;;;14.10;8.75;;;;;;;;;;5015014;28;20038;-76
2023/02/17 06:07:33;;;;;;;14.93;9.57;;;;;;;;;;5022851;28;20382;-76
2023/02/17 06:09:58;;;;;;;13.00;8.90;;;;;;;;;;5018161;28;20051;-76
2023/02/17 06:12:24;;;;;;;14.55;9.13;;;;;;;;;;5022474;28;20040;-76
2023/02/17 06:14:49;;;;;;;16.08;8.98;;;;;;;;;;5021260;28;20064;-77
2023/02/17 06:17:14;;;;;;;15.27;9.23;;;;;;;;;;5026173;28;20433;-77
2023/02/17 06:19:40;;;;;;;13.82;8.38;;;;;;;;;;5026147;28;20033;-76
2023/02/17 06:22:05;;;;;;;15.45;9.20;;;;;;;;;;5025297;28;20036;-76
2023/02/17 06:24:30;;;;;;;14.18;8.63;;;;;;;;;;5022168;28;20482;-76
2023/02/17 06:26:56;;;;;;;12.52;8.23;;;;;;;;;;5029135;28;20021;-76
2023/02/17 06:29:21;;;;;;;15.00;9.45;;;;;;;;;;5023491;28;20033;-76
2023/02/17 06:31:47;;;;;;;15.60;9.05;;;;;;;;;;5027725;28;20056;-76
2023/02/17 06:34:12;;;;;;;12.73;8.50;;;;;;;;;;5023913;28;20040;-76
2023/02/17 06:36:38;;;;;;;13.75;8.57;;;;;;;;;;5023092;28;20021;-76
2023/02/17 06:39:03;;;;;;;13.95;8.50;;;;;;;;;;5021754;28;20124;-76
2023/02/17 06:41:28;;;;;;;15.73;9.05;;;;;;;;;;5020748;28;20108;-76
2023/02/17 06:43:54;;;;;;;16.15;9.23;;;;;;;;;;5018463;28;20523;-76
2023/02/17 06:46:20;;;;;;;15.10;8.95;;;;;;;;;;5021971;28;20452;-76
2023/02/17 06:48:45;;;;;;;15.48;9.23;;;;;;;;;;5026123;28;20029;-76
2023/02/17 06:51:11;;;;;;;13.77;8.40;;;;;;;;;;5028692;28;20025;-76
2023/02/17 06:53:36;;;;;;;15.13;9.05;;;;;;;;;;5024276;28;20117;-76
2023/02/17 06:56:02;;;;;;;15.65;9.55;;;;;;;;;;5026824;28;20021;-76
2023/02/17 06:58:27;;;;;;;15.73;9.75;;;;;;;;;;5028004;28;20032;-76
2023/02/17 07:00:52;;;;;;;17.65;9.88;;;;;;;;;;5023287;28;20029;-76
2023/02/17 07:03:18;;;;;;;16.20;9.88;;;;;;;;;;5026847;28;20021;-76
2023/02/17 07:05:43;;;;;;;16.85;10.25;;;;;;;;;;5020045;28;20021;-76
2023/02/17 07:08:08;;;;;;;17.60;10.75;;;;;;;;;;5022897;28;20153;-76
2023/02/17 07:10:36;;;;;;;17.02;11.00;;;;;;;;;;5018330;28;20033;-77
2023/02/17 07:13:01;;;;;;;17.00;10.50;;;;;;;;;;5023962;28;20025;-75
2023/02/17 07:15:27;;;;;;;18.95;10.43;;;;;;;;;;5019699;28;20018;-75
2023/02/17 07:17:52;;;;;;;14.65;9.75;;;;;;;;;;5021982;28;20033;-76
2023/02/17 07:20:17;;;;;;;17.33;10.43;;;;;;;;;;5022016;28;20056;-76
2023/02/17 07:22:43;;;;;;;15.05;9.00;;;;;;;;;;5020396;28;20410;-76
2023/02/17 07:25:08;;;;;;;16.80;10.43;;;;;;;;;;5020095;28;20025;-76
2023/02/17 07:27:35;;;;;;;17.60;10.15;;;;;;;;;;5017042;28;20095;-76
2023/02/17 07:30:01;;;;;;;17.52;10.15;;;;;;;;;;5022510;28;20059;-75
2023/02/17 07:32:26;;;;;;;16.63;9.18;;;;;;;;;;5022153;28;20092;-75
2023/02/17 07:34:51;;;;;;;15.50;10.05;;;;;;;;;;5023804;28;20061;-75
2023/02/17 07:37:20;;;;;;;16.10;8.77;;;;;;;;;;5019318;28;20018;-76
2023/02/17 07:39:46;;;;;;;15.20;9.70;;;;;;;;;;5014391;28;20155;-76
2023/02/17 07:42:12;;;;;;;15.38;9.18;;;;;;;;;;5023210;28;20021;-76
2023/02/17 07:44:37;;;;;;;14.45;9.18;;;;;;;;;;5026284;28;20022;-76
2023/02/17 07:47:02;;;;;;;15.35;9.15;;;;;;;;;;5019238;28;20413;-76
2023/02/17 07:49:28;;;;;;;16.00;9.55;;;;;;;;;;5028211;28;20045;-76
2023/02/17 07:51:53;;;;;;;15.57;9.75;;;;;;;;;;5034913;28;20065;-76
2023/02/17 07:54:20;;;;;;;16.08;9.68;;;;;;;;;;5043287;28;20060;-76
2023/02/17 07:56:45;;;;;;;16.08;9.23;;;;;;;;;;5032816;28;20075;-76
2023/02/17 07:59:12;;;;;;;20.83;10.20;;;;;;;;;;5029049;28;20416;-76
2023/02/17 08:01:37;;;;;;;15.98;9.88;;;;;;;;;;5035364;28;20024;-76
2023/02/17 08:04:03;;;;;;;17.73;9.80;;;;;;;;;;5035055;28;20120;-76
2023/02/17 08:06:29;;;;;;;17.13;10.15;;;;;;;;;;5038171;28;20064;-76
2023/02/17 08:14:41;;;;;;;16.08;9.82;;;;;;;;;;5036235;28;20048;-76
2023/02/17 08:17:06;;;;;;;14.20;8.90;;;;;;;;;;5029392;28;20029;-76
2023/02/17 08:19:32;;;;;;;14.07;8.52;;;;;;;;;;5027934;28;20025;-76
2023/02/17 08:21:57;;;;;;;15.93;8.75;;;;;;;;;;5023541;28;20033;-76
2023/02/17 08:24:23;;;;;;;13.77;8.63;;;;;;;;;;5031580;28;20505;-76
2023/02/17 08:26:49;;;;;;;14.82;8.25;;;;;;;;;;5037534;28;20087;-75
2023/02/17 08:29:15;;;;;;;14.57;8.45;;;;;;;;;;5047583;28;20033;-76
2023/02/17 08:31:41;;;;;;;12.18;8.18;;;;;;;;;;5031152;28;20403;-76
2023/02/17 08:34:08;;;;;;;14.77;8.38;;;;;;;;;;5030986;28;20774;-76
2023/02/17 08:36:36;;;;;;;13.07;8.35;;;;;;;;;;5032647;28;20048;-76
2023/02/17 08:39:03;;;;;;;13.77;8.38;;;;;;;;;;5031583;28;20034;-76
2023/02/17 08:41:31;;;;;;;16.27;9.23;;;;;;;;;;5038486;28;20465;-76
2023/02/17 08:44:00;;;;;;;11.32;7.88;;;;;;;;;;5028649;28;20121;-76
2023/02/17 08:46:26;;;;;;;14.38;8.80;;;;;;;;;;5026827;28;20045;-76
2023/02/17 08:48:51;;;;;;;13.75;8.43;;;;;;;;;;5022812;28;20036;-76
2023/02/17 08:51:22;;;;;;;13.18;8.38;;;;;;;;;;5028725;28;20021;-75
2023/02/17 08:53:48;;;;;;;11.63;7.72;;;;;;;;;;5050821;28;20087;-76
2023/02/17 08:56:14;;;;;;;11.60;7.22;;;;;;;;;;5031116;28;20458;-76
2023/02/17 08:58:39;;;;;;;12.75;8.25;;;;;;;;;;5032170;28;20038;-76
2023/02/17 09:01:05;;;;;;;11.45;6.75;;;;;;;;;;5025324;28;20036;-76
2023/02/17 09:03:33;;;;;;;11.00;7.18;;;;;;;;;;5032277;28;20056;-76
2023/02/17 09:06:00;;;;;;;12.00;7.55;;;;;;;;;;5031182;28;20482;-76
2023/02/17 09:08:25;;;;;;;12.18;7.32;;;;;;;;;;5033389;28;20060;-76
2023/02/17 09:10:51;;;;;;;12.57;7.50;;;;;;;;;;5034670;28;20029;-76
2023/02/17 09:13:17;;;;;;;10.40;6.72;;;;;;;;;;5029819;28;20082;-76
2023/02/17 09:15:42;;;;;;;9.00;6.05;;;;;;;;;;5029257;28;20033;-76
2023/02/17 09:18:08;;;;;;;10.25;5.50;;;;;;;;;;5034272;28;20025;-76
2023/02/17 09:20:35;;;;;;;8.85;5.97;;;;;;;;;;5028158;28;20056;-76
2023/02/17 09:23:01;;;;;;;9.20;6.10;;;;;;;;;;5034170;28;20041;-76
2023/02/17 09:25:26;;;;;;;9.23;5.90;;;;;;;;;;5031605;28;20489;-76
2023/02/17 09:27:52;;;;;;;8.93;5.25;;;;;;;;;;5034670;28;20049;-76
2023/02/17 09:30:17;;;;;;;8.18;4.97;;;;;;;;;;5031391;28;20491;-76
2023/02/17 09:32:43;;;;;;;7.45;4.57;;;;;;;;;;5032235;28;20025;-76
2023/02/17 09:35:16;;;;;;;7.72;4.80;;;;;;;;;;5027549;28;20101;-76
2023/02/17 09:37:41;;;;;;;7.10;4.50;;;;;;;;;;5024387;28;20033;-76
2023/02/17 09:40:14;;;;;;;7.90;4.75;;;;;;;;;;5034787;28;20029;-76
2023/02/17 09:42:40;;;;;;;8.07;4.63;;;;;;;;;;5037015;28;20438;-76
2023/02/17 09:45:20;;;;;;;7.07;4.10;;;;;;;;;;5032150;28;20056;-76
2023/02/17 09:47:55;;;;;;;6.60;4.18;;;;;;;;;;5033898;28;20026;-76
2023/02/17 09:50:26;;;;;;;6.45;4.32;;;;;;;;;;5030539;28;20378;-76
2023/02/17 09:53:05;;;;;;;6.43;4.15;;;;;;;;;;5045227;28;20057;-76
2023/02/17 09:55:36;;;;;;;6.07;4.00;;;;;;;;;;5025856;28;20058;-76
2023/02/17 09:58:17;;;;;;;5.72;3.65;;;;;;;;;;5033605;28;20385;-76
2023/02/17 10:00:46;;;;;;;6.50;4.15;;;;;;;;;;5022095;28;21540;-77
2023/02/17 10:03:19;;;;;;;6.82;4.05;;;;;;;;;;5036302;28;20403;-76
2023/02/17 10:06:10;;;;;;;5.88;4.00;;;;;;;;;;5024654;28;20032;-76
2023/02/17 10:08:44;;;;;;;5.50;3.60;;;;;;;;;;5016903;28;20041;-76
2023/02/17 10:11:20;;;;;;;6.35;4.35;;;;;;;;;;5029260;28;20041;-76
2023/02/17 10:13:45;;;;;;;6.43;3.70;;;;;;;;;;5027922;28;20579;-76
2023/02/17 10:16:20;;;;;;;7.05;4.18;;;;;;;;;;5026575;28;20069;-76
2023/02/17 10:19:20;;;;;;;6.97;4.07;;;;;;;;;;5033539;28;20072;-76
2023/02/17 10:21:54;;;;;;;6.65;4.03;;;;;;;;;;5020526;28;20489;-76
2023/02/17 10:24:20;;;;;;;7.07;3.67;;;;;;;;;;5026655;28;20080;-76
2023/02/17 10:27:11;;;;;;;6.78;3.97;;;;;;;;;;5029290;28;20021;-76
2023/02/17 10:29:36;;;;;;;6.05;4.00;;;;;;;;;;5023642;28;20120;-76
2023/02/17 10:32:13;;;;;;;6.22;4.13;;;;;;;;;;5028100;28;20064;-76
2023/02/17 10:35:01;;;;;;;5.95;3.85;;;;;;;;;;5032704;28;20040;-76
2023/02/17 10:37:39;;;;;;;5.38;3.42;;;;;;;;;;5024337;28;20591;-76
2023/02/17 10:40:26;;;;;;;5.40;3.63;;;;;;;;;;5019465;28;20032;-77
2023/02/17 10:42:55;;;;;;;5.03;3.42;;;;;;;;;;5024314;28;20490;-76
2023/02/17 10:45:30;;;;;;;5.65;3.50;;;;;;;;;;5017982;28;20021;-77
2023/02/17 10:48:37;;;;;;;6.50;3.33;;;;;;;;;;5026217;28;20120;-77
2023/02/17 10:51:03;;;;;;;5.97;3.38;;;;;;;;;;5026341;28;20029;-77
2023/02/17 10:53:39;;;;;;;5.43;3.03;;;;;;;;;;5019911;28;20037;-76
2023/02/17 10:56:20;;;;;;;6.00;3.40;;;;;;;;;;5027509;28;20116;-76
2023/02/17 10:58:51;;;;;;;5.65;3.20;;;;;;;;;;5023254;28;20040;-76
2023/02/17 11:01:17;;;;;;;5.72;3.15;;;;;;;;;;5021545;28;20025;-76
2023/02/17 11:03:42;;;;;;;5.13;3.25;;;;;;;;;;5025683;28;20036;-76
2023/02/17 11:06:24;;;;;;;5.60;3.17;;;;;;;;;;5021075;28;20397;-77
2023/02/17 11:08:58;;;;;;;4.80;3.00;;;;;;;;;;5024474;28;20033;-76
2023/02/17 11:11:29;;;;;;;5.63;3.03;;;;;;;;;;5028740;28;20159;-77
2023/02/17 11:14:03;;;;;;;5.75;3.60;;;;;;;;;;5027180;28;20041;-76
2023/02/17 11:16:44;;;;;;;5.90;3.20;;;;;;;;;;5028918;28;20025;-76
2023/02/17 11:19:21;;;;;;;5.63;3.03;;;;;;;;;;5024288;28;20402;-76
2023/02/17 11:21:46;;;;;;;4.78;2.65;;;;;;;;;;5027952;28;20030;-76
2023/02/17 11:24:12;;;;;;;5.95;3.30;;;;;;;;;;5030030;28;20353;-76
2023/02/17 11:26:38;;;;;;;5.85;3.13;;;;;;;;;;5029650;28;20061;-77
2023/02/17 11:29:14;;;;;;;7.30;3.25;;;;;;;;;;5032042;28;20102;-76
2023/02/17 11:31:40;;;;;;;6.18;3.53;;;;;;;;;;5025073;28;20082;-76
2023/02/17 11:34:13;;;;;;;5.70;3.10;;;;;;;;;;5014447;28;20073;-76
2023/02/17 11:36:39;;;;;;;7.10;3.30;;;;;;;;;;5030647;28;20025;-76
2023/02/17 11:39:21;;;;;;;5.15;2.92;;;;;;;;;;5026114;28;20414;-76
2023/02/17 11:41:47;;;;;;;6.22;3.42;;;;;;;;;;5022546;28;20116;-76
2023/02/17 11:44:23;;;;;;;5.00;3.15;;;;;;;;;;5029741;28;20029;-76
2023/02/17 11:46:57;;;;;;;5.93;3.03;;;;;;;;;;5030391;28;20036;-76
2023/02/17 11:49:54;;;;;;;6.20;3.40;;;;;;;;;;5034237;28;20494;-77
2023/02/17 11:52:44;;;;;;;5.63;3.03;;;;;;;;;;5023325;28;20065;-76
2023/02/17 11:55:19;;;;;;;5.90;2.90;;;;;;;;;;5030515;28;21292;-78
2023/02/17 11:58:00;;;;;;;5.28;3.25;;;;;;;;;;5028197;28;20029;-76
2023/02/17 12:00:25;;;;;;;5.30;3.25;;;;;;;;;;5025182;28;20025;-78
2023/02/17 12:03:28;;;;;;;5.18;3.13;;;;;;;;;;5027258;28;20531;-78
2023/02/17 12:06:04;;;;;;;5.15;3.10;;;;;;;;;;5017864;28;20558;-76
2023/02/17 12:09:02;;;;;;;5.00;2.80;;;;;;;;;;5024067;28;20038;-76
2023/02/17 12:11:38;;;;;;;5.45;3.22;;;;;;;;;;5024846;28;20099;-76
2023/02/17 12:14:13;;;;;;;7.28;3.05;;;;;;;;;;5029385;28;20401;-76
2023/02/17 12:16:53;;;;;;;7.38;3.58;;;;;;;;;;5032496;28;20025;-76
2023/02/17 12:19:47;;;;;;;5.13;3.25;;;;;;;;;;5017489;28;20029;-76
2023/02/17 12:22:18;;;;;;;7.22;3.25;;;;;;;;;;5029381;28;20029;-76
2023/02/17 12:25:08;;;;;;;6.53;3.30;;;;;;;;;;5024307;28;20044;-78
2023/02/17 12:28:01;;;;;;;6.70;3.00;;;;;;;;;;5027494;28;20029;-76
2023/02/17 12:31:03;;;;;;;5.15;2.95;;;;;;;;;;5026647;28;20030;-76
2023/02/17 12:33:59;;;;;;;5.30;3.10;;;;;;;;;;5023049;28;20029;-77
2023/02/17 12:36:31;;;;;;;5.55;3.17;;;;;;;;;;5030985;28;20168;-76
2023/02/17 12:39:01;;;;;;;6.28;3.47;;;;;;;;;;5030011;28;20462;-76
2023/02/17 12:41:42;;;;;;;6.03;3.60;;;;;;;;;;5021740;28;20064;-76
2023/02/17 12:44:18;;;;;;;7.47;3.58;;;;;;;;;;5031754;28;20115;-76
2023/02/17 12:46:47;;;;;;;8.13;3.90;;;;;;;;;;5030554;28;20037;-77
2023/02/17 12:49:19;;;;;;;5.28;3.20;;;;;;;;;;5030178;28;20461;-76
2023/02/17 12:51:56;;;;;;;6.65;3.83;;;;;;;;;;5028480;28;20037;-76
2023/02/17 12:54:27;;;;;;;5.15;3.20;;;;;;;;;;5028609;28;20039;-76
2023/02/17 12:57:30;;;;;;;7.55;3.65;;;;;;;;;;5020594;28;20409;-76
2023/02/17 12:59:57;;;;;;;6.50;3.20;;;;;;;;;;5020876;28;20512;-76
2023/02/17 13:02:24;;;;;;;5.15;3.47;;;;;;;;;;5019316;28;20021;-76
2023/02/17 13:04:56;;;;;;;6.07;3.40;;;;;;;;;;5028366;28;20484;-76
2023/02/17 13:07:28;;;;;;;5.40;2.95;;;;;;;;;;5027544;28;20508;-76
2023/02/17 13:09:55;;;;;;;7.07;2.92;;;;;;;;;;5028642;28;20036;-77
2023/02/17 13:12:20;;;;;;;6.32;3.28;;;;;;;;;;5022335;28;20025;-76
2023/02/17 13:14:54;;;;;;;6.50;3.60;;;;;;;;;;5024853;28;20033;-76
2023/02/17 13:17:43;;;;;;;4.53;3.03;;;;;;;;;;5024953;28;20032;-76
2023/02/17 13:20:08;;;;;;;7.60;3.42;;;;;;;;;;5015753;28;20140;-76
2023/02/17 13:22:33;;;;;;;6.90;3.30;;;;;;;;;;5024493;28;20116;-76
2023/02/17 13:24:59;;;;;;;7.10;3.63;;;;;;;;;;5030133;28;20127;-76
2023/02/17 13:27:27;;;;;;;7.00;3.15;;;;;;;;;;5033489;28;20477;-77
2023/02/17 13:30:17;;;;;;;6.78;3.40;;;;;;;;;;5031794;28;20125;-76
2023/02/17 13:32:43;;;;;;;7.05;3.13;;;;;;;;;;5028761;28;20511;-76
2023/02/17 13:35:24;;;;;;;8.45;3.55;;;;;;;;;;5020737;28;20026;-77
2023/02/17 13:37:51;;;;;;;7.60;3.42;;;;;;;;;;5027428;28;20079;-76
2023/02/17 13:40:19;;;;;;;7.07;3.28;;;;;;;;;;5027261;28;20501;-76
2023/02/17 13:43:06;;;;;;;6.68;3.42;;;;;;;;;;5029643;28;20474;-76
2023/02/17 13:45:39;;;;;;;5.75;2.88;;;;;;;;;;5027253;28;20044;-76
2023/02/17 13:48:16;;;;;;;5.50;2.90;;;;;;;;;;5030386;28;20617;-76
2023/02/17 13:50:45;;;;;;;6.60;3.50;;;;;;;;;;5019739;28;20038;-77
2023/02/17 13:53:29;;;;;;;8.35;3.15;;;;;;;;;;5026891;28;20105;-76
2023/02/17 13:56:01;;;;;;;5.60;2.97;;;;;;;;;;5036445;28;20187;-77
2023/02/17 13:58:33;;;;;;;5.28;2.83;;;;;;;;;;5029145;28;20037;-77
2023/02/17 14:01:00;;;;;;;5.72;2.88;;;;;;;;;;5027101;28;20468;-76
2023/02/17 14:03:32;;;;;;;5.95;3.38;;;;;;;;;;5022986;28;20041;-76
2023/02/17 14:05:59;;;;;;;8.30;3.90;;;;;;;;;;5019311;28;20052;-76
2023/02/17 14:08:33;;;;;;;7.25;3.42;;;;;;;;;;5017835;28;20036;-76
2023/02/17 14:11:20;;;;;;;5.88;3.28;;;;;;;;;;5024138;28;20124;-76
2023/02/17 14:13:48;;;;;;;5.38;3.03;;;;;;;;;;5029642;28;20035;-76
2023/02/17 14:16:26;;;;;;;5.68;2.78;;;;;;;;;;5026407;28;20029;-75
2023/02/17 14:19:02;;;;;;;6.50;2.80;;;;;;;;;;5022887;28;20040;-76
2023/02/17 14:21:28;;;;;;;5.93;3.10;;;;;;;;;;5024427;28;20044;-76
2023/02/17 14:23:56;;;;;;;5.38;3.15;;;;;;;;;;5023303;28;20033;-76
2023/02/17 14:26:33;;;;;;;5.32;3.20;;;;;;;;;;5034109;28;20525;-76
2023/02/17 14:29:01;;;;;;;6.57;3.00;;;;;;;;;;5021273;28;20036;-76
2023/02/17 14:31:27;;;;;;;7.13;3.22;;;;;;;;;;5020834;28;20061;-76
2023/02/17 14:33:57;;;;;;;5.82;3.05;;;;;;;;;;5027932;28;20060;-76
2023/02/17 14:36:29;;;;;;;9.23;3.72;;;;;;;;;;5030430;28;20036;-76
2023/02/17 14:38:57;;;;;;;5.55;3.40;;;;;;;;;;5026942;28;20107;-76
2023/02/17 14:41:23;;;;;;;6.72;2.92;;;;;;;;;;5026001;28;20029;-76
2023/02/17 14:43:49;;;;;;;5.57;3.00;;;;;;;;;;5029141;28;20025;-76
2023/02/17 14:46:18;;;;;;;7.45;3.17;;;;;;;;;;5021699;28;20083;-76
2023/02/17 14:48:43;;;;;;;6.50;2.90;;;;;;;;;;5028756;28;20041;-76
2023/02/17 14:51:14;;;;;;;7.05;3.45;;;;;;;;;;5029602;28;20032;-76
2023/02/17 14:53:40;;;;;;;4.63;3.05;;;;;;;;;;5024632;28;20076;-76
2023/02/17 14:56:09;;;;;;;5.38;2.80;;;;;;;;;;5020593;28;20044;-76
2023/02/17 14:58:35;;;;;;;7.43;3.10;;;;;;;;;;5023406;28;20061;-77